createdAt,value
2023-04-18T00:08:18.294Z,5.27
2023-04-18T00:13:22.018Z,5.23
2023-04-18T00:18:30.218Z,5.23
2023-04-18T00:23:34.337Z,5.15
2023-04-18T00:28:37.363Z,5.10
2023-04-18T00:33:45.169Z,5.04
2023-04-18T00:38:48.226Z,4.99
2023-04-18T00:43:51.600Z,4.87
2023-04-18T00:49:00.753Z,4.79
2023-04-18T00:54:05.147Z,4.75
2023-04-18T00:59:10.430Z,4.69
2023-04-18T01:04:14.875Z,4.60
2023-04-18T01:09:18.544Z,4.54
2023-04-18T01:14:22.690Z,4.47
2023-04-18T01:19:27.000Z,4.44
2023-04-18T01:24:32.000Z,4.37
2023-04-18T01:29:34.902Z,4.35
2023-04-18T01:34:39.559Z,4.26
2023-04-18T01:39:46.667Z,4.17
2023-04-18T01:44:52.583Z,4.11
2023-04-18T01:49:57.650Z,4.10
2023-04-18T01:55:06.189Z,4.03
2023-04-18T02:00:09.857Z,3.91
2023-04-18T02:05:14.760Z,3.83
2023-04-18T02:10:21.203Z,3.78
2023-04-18T02:15:26.919Z,4.00
2023-04-18T02:20:31.770Z,4.35
2023-04-18T02:25:36.167Z,4.69
2023-04-18T02:30:39.218Z,4.88
2023-04-18T02:35:43.420Z,5.08
2023-04-18T02:40:47.812Z,5.21
2023-04-18T02:45:51.174Z,5.33
2023-04-18T02:50:55.502Z,5.42
2023-04-18T02:56:00.164Z,5.45
2023-04-18T03:01:04.093Z,5.43
2023-04-18T03:06:07.401Z,5.49
2023-04-18T03:11:11.654Z,5.52
2023-04-18T03:16:14.717Z,5.57
2023-04-18T03:21:19.909Z,5.60
2023-04-18T03:26:26.036Z,5.63
2023-04-18T03:31:28.835Z,5.64
2023-04-18T03:36:32.060Z,5.67
2023-04-18T03:41:43.144Z,5.69
2023-04-18T03:46:48.377Z,5.70
2023-04-18T03:51:52.953Z,5.73
2023-04-18T03:56:59.363Z,5.73
2023-04-18T04:02:02.478Z,5.71
2023-04-18T04:07:08.795Z,5.73
2023-04-18T04:12:13.636Z,5.76
2023-04-18T04:17:16.397Z,5.75
2023-04-18T04:22:19.391Z,5.72
2023-04-18T04:27:27.582Z,5.78
2023-04-18T04:32:33.012Z,5.82
2023-04-18T04:37:36.378Z,5.81
2023-04-18T04:42:41.134Z,5.79
2023-04-18T04:47:45.058Z,5.81
2023-04-18T04:52:55.359Z,5.81
2023-04-18T04:58:00.174Z,5.85
2023-04-18T05:03:04.116Z,5.88
2023-04-18T05:08:07.875Z,5.93
2023-04-18T05:13:12.102Z,5.98
2023-04-18T05:18:15.532Z,6.00
2023-04-18T05:23:18.570Z,6.08
2023-04-18T05:28:25.108Z,6.25
2023-04-18T05:33:29.414Z,6.55
2023-04-18T05:38:33.898Z,6.87
2023-04-18T05:43:38.071Z,7.04
2023-04-18T05:48:42.048Z,7.08
2023-04-18T05:53:47.636Z,7.06
2023-04-18T05:58:51.739Z,7.11
2023-04-18T06:03:55.447Z,7.01
2023-04-18T06:08:58.784Z,7.19
2023-04-18T06:14:03.688Z,7.26
2023-04-18T06:19:06.482Z,7.31
2023-04-18T06:24:09.573Z,7.16
2023-04-18T06:29:18.287Z,7.15
2023-04-18T06:34:23.017Z,7.50
2023-04-18T06:39:27.952Z,8.79
2023-04-18T06:44:32.716Z,11.04
2023-04-18T06:49:36.859Z,10.96
2023-04-18T06:54:44.185Z,10.07
2023-04-18T06:59:48.564Z,9.25
2023-04-18T07:04:52.822Z,9.38
2023-04-18T07:09:56.102Z,10.39
2023-04-18T07:15:00.307Z,10.95
2023-04-18T07:20:03.816Z,10.70
2023-04-18T07:25:07.728Z,10.08
2023-04-18T07:30:13.390Z,9.87
2023-04-18T07:35:16.610Z,10.14
2023-04-18T07:40:19.778Z,11.04
2023-04-18T07:45:24.360Z,11.58
2023-04-18T07:50:27.217Z,11.19
2023-04-18T07:55:30.791Z,10.34
2023-04-18T08:00:37.328Z,10.07
2023-04-18T08:05:43.361Z,10.01
2023-04-18T08:10:46.483Z,9.88
2023-04-18T08:15:55.283Z,9.85
2023-04-18T08:20:58.073Z,9.77
2023-04-18T08:26:01.071Z,9.36
2023-04-18T08:31:13.363Z,9.14
2023-04-18T08:36:18.730Z,9.18
2023-04-18T08:41:24.924Z,10.00
2023-04-18T08:46:32.351Z,9.93
2023-04-18T08:51:35.614Z,9.94
2023-04-18T08:56:38.647Z,10.36
2023-04-18T09:02:01.710Z,10.35
2023-04-18T09:07:06.775Z,10.40
2023-04-18T09:12:14.399Z,10.77
2023-04-18T09:17:33.925Z,10.61
2023-04-18T09:22:51.399Z,11.13
2023-04-18T09:27:56.815Z,12.72
2023-04-18T09:33:05.200Z,14.14
2023-04-18T09:38:09.136Z,15.25
2023-04-18T09:43:22.525Z,14.47
2023-04-18T09:48:29.155Z,13.86
2023-04-18T09:53:35.108Z,13.02
2023-04-18T09:58:43.347Z,12.63
2023-04-18T10:03:51.484Z,13.15
2023-04-18T10:08:55.350Z,13.56
2023-04-18T10:14:04.328Z,13.52
2023-04-18T10:19:28.578Z,13.69
2023-04-18T10:24:55.219Z,14.70
2023-04-18T10:29:58.958Z,15.77
2023-04-18T10:35:14.023Z,17.08
2023-04-18T10:40:34.338Z,17.67
2023-04-18T10:45:37.381Z,16.65
2023-04-18T10:50:59.575Z,14.61
2023-04-18T10:56:04.756Z,15.39
2023-04-18T11:01:10.559Z,14.64
2023-04-18T11:06:14.969Z,14.46
2023-04-18T11:11:20.122Z,14.32
2023-04-18T11:16:33.774Z,14.47
2023-04-18T11:21:40.612Z,14.41
2023-04-18T11:26:46.838Z,13.24
2023-04-18T11:31:55.220Z,13.23
2023-04-18T11:37:07.135Z,13.75
2023-04-18T11:42:10.913Z,14.01
2023-04-18T11:47:27.158Z,14.20
2023-04-18T11:52:33.415Z,16.02
2023-04-18T11:57:39.052Z,15.76
2023-04-18T12:02:49.480Z,15.52
2023-04-18T12:08:07.971Z,15.56
2023-04-18T12:13:10.647Z,14.64
2023-04-18T12:18:18.300Z,14.41
2023-04-18T12:23:35.572Z,15.70
2023-04-18T12:28:38.536Z,16.16
2023-04-18T12:33:43.658Z,15.88
2023-04-18T12:38:49.195Z,16.49
2023-04-18T12:43:51.995Z,16.78
2023-04-18T12:48:57.261Z,15.88
2023-04-18T12:54:01.842Z,15.49
2023-04-18T12:59:04.758Z,16.84
2023-04-18T13:04:12.259Z,16.06
2023-04-18T13:09:16.965Z,15.11
2023-04-18T13:14:20.796Z,16.12
2023-04-18T13:19:26.548Z,16.49
2023-04-18T13:24:31.271Z,15.87
2023-04-18T13:29:34.271Z,16.60
2023-04-18T13:34:40.633Z,16.18
2023-04-18T13:39:51.046Z,16.68
2023-04-18T13:44:54.467Z,17.19
2023-04-18T13:49:57.998Z,17.76
2023-04-18T13:55:02.100Z,17.18
2023-04-18T14:00:09.253Z,16.90
2023-04-18T14:05:12.084Z,17.11
2023-04-18T14:10:16.120Z,17.53
2023-04-18T14:15:21.470Z,18.12
2023-04-18T14:20:26.496Z,17.55
2023-04-18T14:25:31.741Z,17.44
2023-04-18T14:30:34.478Z,17.15
2023-04-18T14:35:38.013Z,16.57
2023-04-18T14:41:00.518Z,16.78
2023-04-18T14:46:04.156Z,16.77
2023-04-18T14:51:07.329Z,16.04
2023-04-18T14:56:29.326Z,15.23
2023-04-18T15:01:31.946Z,14.78
2023-04-18T15:06:34.651Z,15.21
2023-04-18T15:11:39.065Z,15.14
2023-04-18T15:16:41.696Z,14.77
2023-04-18T15:21:44.656Z,16.01
2023-04-18T15:26:48.960Z,17.09
2023-04-18T15:31:51.654Z,17.15
2023-04-18T15:36:56.297Z,17.94
2023-04-18T15:42:00.304Z,17.34
2023-04-18T15:47:03.073Z,16.46
2023-04-18T15:52:06.878Z,17.30
2023-04-18T15:57:11.594Z,16.31
2023-04-18T16:02:14.269Z,15.62
2023-04-18T16:07:18.094Z,16.23
2023-04-18T16:12:22.263Z,16.01
2023-04-18T16:17:26.279Z,16.37
2023-04-18T16:22:29.178Z,16.43
2023-04-18T16:27:33.317Z,16.49
2023-04-18T16:32:36.061Z,17.53
2023-04-18T16:37:39.464Z,17.33
2023-04-18T16:42:44.461Z,17.01
2023-04-18T16:47:47.151Z,16.16
2023-04-18T16:52:50.039Z,16.28
2023-04-18T16:57:53.919Z,16.49
2023-04-18T17:02:56.633Z,17.00
2023-04-18T17:08:01.401Z,17.36
2023-04-18T17:13:05.542Z,17.19
2023-04-18T17:18:08.247Z,16.51
2023-04-18T17:23:11.182Z,14.81
2023-04-18T17:28:15.450Z,13.74
2023-04-18T17:33:18.078Z,13.23
2023-04-18T17:38:20.875Z,12.82
2023-04-18T17:43:26.342Z,12.59
2023-04-18T17:48:28.974Z,12.22
2023-04-18T17:53:32.430Z,12.04
2023-04-18T17:58:57.570Z,11.83
2023-04-18T18:04:00.634Z,11.63
2023-04-18T18:09:03.818Z,11.37
2023-04-18T18:14:07.903Z,11.22
2023-04-18T18:19:10.801Z,11.05
2023-04-18T18:24:13.980Z,10.88
2023-04-18T18:29:19.319Z,10.65
2023-04-18T18:34:25.184Z,10.47
2023-04-18T18:39:33.601Z,10.35
2023-04-18T18:44:39.171Z,10.19
2023-04-18T18:49:42.062Z,9.98
2023-04-18T18:54:44.807Z,9.81
2023-04-18T18:59:50.202Z,9.64
2023-04-18T19:04:53.314Z,9.57
2023-04-18T19:09:56.061Z,9.61
2023-04-18T19:15:00.181Z,9.53
2023-04-18T19:20:03.308Z,9.42
2023-04-18T19:25:06.904Z,9.33
2023-04-18T19:30:12.006Z,9.21
2023-04-18T19:35:15.732Z,9.07
2023-04-18T19:40:18.738Z,9.00
2023-04-18T19:45:22.895Z,8.85
2023-04-18T19:50:26.782Z,8.70
2023-04-18T19:55:50.460Z,8.58
2023-04-18T20:00:54.608Z,8.55
2023-04-18T20:05:57.276Z,8.43
2023-04-18T20:10:59.980Z,8.34
2023-04-18T20:16:04.097Z,8.21
2023-04-18T20:21:25.674Z,8.06
2023-04-18T20:26:28.438Z,7.93
2023-04-18T20:31:32.514Z,7.87
2023-04-18T20:36:36.620Z,7.80
2023-04-18T20:41:46.631Z,7.74
2023-04-18T20:46:50.829Z,7.63
2023-04-18T20:51:53.512Z,7.57
2023-04-18T20:56:56.198Z,7.41
2023-04-18T21:02:00.345Z,7.37
2023-04-18T21:07:05.167Z,7.23
2023-04-18T21:12:07.935Z,7.18
2023-04-18T21:17:17.130Z,7.22
2023-04-18T21:22:19.803Z,7.20
2023-04-18T21:27:22.393Z,7.17
2023-04-18T21:32:26.554Z,7.21
2023-04-18T21:37:29.471Z,7.09
2023-04-18T21:42:32.259Z,7.05
2023-04-18T21:47:36.258Z,6.94
2023-04-18T21:52:39.014Z,6.90
2023-04-18T21:57:41.728Z,6.89
2023-04-18T22:02:46.271Z,6.79
2023-04-18T22:07:57.431Z,6.72
2023-04-18T22:13:01.223Z,6.70
2023-04-18T22:18:06.032Z,6.64
2023-04-18T22:23:09.321Z,6.64
2023-04-18T22:28:12.048Z,6.61
2023-04-18T22:33:16.037Z,6.69
2023-04-18T22:38:18.735Z,6.66
2023-04-18T22:43:23.716Z,6.89
2023-04-18T22:48:27.855Z,7.07
2023-04-18T22:53:30.564Z,7.14
2023-04-18T22:58:33.869Z,7.24
2023-04-18T23:03:38.001Z,7.40
2023-04-18T23:08:42.784Z,7.57
2023-04-18T23:13:46.404Z,7.64
2023-04-18T23:18:50.448Z,7.64
2023-04-18T23:23:53.169Z,7.61
2023-04-18T23:28:55.864Z,7.51
2023-04-18T23:33:59.948Z,7.42
2023-04-18T23:39:03.004Z,7.38
2023-04-18T23:44:06.905Z,7.36
2023-04-18T23:49:10.978Z,7.40
2023-04-18T23:54:13.831Z,7.39
2023-04-18T23:59:16.721Z,7.47
